sensor_id;sensor_type;location;lat;lon;timestamp;pressure;altitude;pressure_sealevel;temperature;humidity
6938;BME280;40040;42.706;23.372;2022-12-18T00:02:20;145863.03;;;6.83;100.00
6938;BME280;40040;42.706;23.372;2022-12-18T00:04:47;145838.44;;;6.73;100.00
6938;BME280;40040;42.706;23.372;2022-12-18T00:07:14;145821.22;;;6.66;100.00
6938;BME280;40040;42.706;23.372;2022-12-18T00:09:41;145786.78;;;6.52;100.00
6938;BME280;40040;42.706;23.372;2022-12-18T00:12:07;145788.03;;;6.53;100.00
6938;BME280;40040;42.706;23.372;2022-12-18T00:14:34;145810.16;;;6.62;100.00
6938;BME280;40040;42.706;23.372;2022-12-18T00:17:03;145797.88;;;6.57;100.00
6938;BME280;40040;42.706;23.372;2022-12-18T00:19:30;145794.19;;;6.55;100.00
6938;BME280;40040;42.706;23.372;2022-12-18T00:21:57;145749.91;;;6.37;100.00
6938;BME280;40040;42.706;23.372;2022-12-18T00:24:24;145730.25;;;6.29;100.00
6938;BME280;40040;42.706;23.372;2022-12-18T00:26:51;145769.56;;;6.45;100.00
6938;BME280;40040;42.706;23.372;2022-12-18T00:29:18;145752.34;;;6.38;100.00
6938;BME280;40040;42.706;23.372;2022-12-18T00:31:45;145726.53;;;6.28;100.00
6938;BME280;40040;42.706;23.372;2022-12-18T00:34:13;145732.69;;;6.30;100.00
6938;BME280;40040;42.706;23.372;2022-12-18T00:36:40;145710.56;;;6.21;100.00
6938;BME280;40040;42.706;23.372;2022-12-18T00:39:08;145650.31;;;5.97;100.00
6938;BME280;40040;42.706;23.372;2022-12-18T00:41:34;145708.13;;;6.20;100.00
6938;BME280;40040;42.706;23.372;2022-12-18T00:44:19;145716.72;;;6.24;100.00
6938;BME280;40040;42.706;23.372;2022-12-18T00:46:47;145658.91;;;6.00;100.00
6938;BME280;40040;42.706;23.372;2022-12-18T00:49:16;145695.81;;;6.15;100.00
6938;BME280;40040;42.706;23.372;2022-12-18T00:51:44;145676.13;;;6.07;100.00
6938;BME280;40040;42.706;23.372;2022-12-18T00:54:11;145558.13;;;5.59;100.00
6938;BME280;40040;42.706;23.372;2022-12-18T00:56:44;145477.03;;;5.26;100.00
6938;BME280;40040;42.706;23.372;2022-12-18T00:59:16;145670.00;;;6.05;100.00
6938;BME280;40040;42.706;23.372;2022-12-18T01:01:45;145684.75;;;6.11;100.00
6938;BME280;40040;42.706;23.372;2022-12-18T01:04:13;145646.63;;;5.95;100.00
6938;BME280;40040;42.706;23.372;2022-12-18T01:06:41;145663.84;;;6.02;100.00
6938;BME280;40040;42.706;23.372;2022-12-18T01:09:09;145602.31;;;5.77;100.00
6938;BME280;40040;42.706;23.372;2022-12-18T01:11:36;145601.13;;;5.77;100.00
6938;BME280;40040;42.706;23.372;2022-12-18T01:14:04;145585.16;;;5.70;100.00
6938;BME280;40040;42.706;23.372;2022-12-18T01:16:31;145649.13;;;5.96;100.00
6938;BME280;40040;42.706;23.372;2022-12-18T01:18:58;145650.31;;;5.97;100.00
6938;BME280;40040;42.706;23.372;2022-12-18T01:21:24;145606.03;;;5.79;100.00
6938;BME280;40040;42.706;23.372;2022-12-18T01:23:54;145625.75;;;5.87;100.00
6938;BME280;40040;42.706;23.372;2022-12-18T01:26:22;145537.22;;;5.50;100.00
6938;BME280;40040;42.706;23.372;2022-12-18T01:28:49;145602.31;;;5.77;100.00
6938;BME280;40040;42.706;23.372;2022-12-18T01:31:17;145572.84;;;5.65;100.00
6938;BME280;40040;42.706;23.372;2022-12-18T01:33:44;145579.00;;;5.67;100.00
6938;BME280;40040;42.706;23.372;2022-12-18T01:36:16;145495.47;;;5.33;100.00
6938;BME280;40040;42.706;23.372;2022-12-18T01:38:43;145579.00;;;5.67;100.00
6938;BME280;40040;42.706;23.372;2022-12-18T01:41:12;145580.25;;;5.68;100.00
6938;BME280;40040;42.706;23.372;2022-12-18T01:43:44;145580.25;;;5.68;100.00
6938;BME280;40040;42.706;23.372;2022-12-18T01:46:11;145580.25;;;5.68;100.00
6938;BME280;40040;42.706;23.372;2022-12-18T01:48:39;145567.97;;;5.63;100.00
6938;BME280;40040;42.706;23.372;2022-12-18T01:51:08;145558.13;;;5.59;100.00
6938;BME280;40040;42.706;23.372;2022-12-18T01:53:36;145534.75;;;5.49;100.00
6938;BME280;40040;42.706;23.372;2022-12-18T01:56:04;145520.03;;;5.43;100.00
6938;BME280;40040;42.706;23.372;2022-12-18T01:58:37;145472.09;;;5.24;100.00
6938;BME280;40040;42.706;23.372;2022-12-18T02:01:06;145516.34;;;5.42;100.00
6938;BME280;40040;42.706;23.372;2022-12-18T02:03:33;145521.28;;;5.44;100.00
6938;BME280;40040;42.706;23.372;2022-12-18T02:06:06;145521.28;;;5.44;100.00
6938;BME280;40040;42.706;23.372;2022-12-18T02:08:41;145521.28;;;5.44;100.00
6938;BME280;40040;42.706;23.372;2022-12-18T02:11:16;145506.50;;;5.38;100.00
6938;BME280;40040;42.706;23.372;2022-12-18T02:13:53;145472.09;;;5.24;100.00
6938;BME280;40040;42.706;23.372;2022-12-18T02:16:29;145475.78;;;5.25;100.00
6938;BME280;40040;42.706;23.372;2022-12-18T02:19:07;145448.78;;;5.14;100.00
6938;BME280;40040;42.706;23.372;2022-12-18T02:21:45;145494.22;;;5.33;100.00
6938;BME280;40040;42.706;23.372;2022-12-18T02:24:27;145506.50;;;5.38;100.00
6938;BME280;40040;42.706;23.372;2022-12-18T02:26:59;145459.81;;;5.19;100.00
6938;BME280;40040;42.706;23.372;2022-12-18T02:29:31;145505.25;;;5.37;100.00
6938;BME280;40040;42.706;23.372;2022-12-18T02:32:02;145497.91;;;5.34;100.00
6938;BME280;40040;42.706;23.372;2022-12-18T02:34:34;145443.88;;;5.12;100.00
6938;BME280;40040;42.706;23.372;2022-12-18T02:37:06;145479.47;;;5.27;100.00
6938;BME280;40040;42.706;23.372;2022-12-18T02:39:37;145481.94;;;5.28;100.00
6938;BME280;40040;42.706;23.372;2022-12-18T02:42:06;145474.53;;;5.25;100.00
6938;BME280;40040;42.706;23.372;2022-12-18T02:44:34;145469.66;;;5.23;100.00
6938;BME280;40040;42.706;23.372;2022-12-18T02:47:01;145459.81;;;5.19;100.00
6938;BME280;40040;42.706;23.372;2022-12-18T02:49:35;145438.94;;;5.10;100.00
6938;BME280;40040;42.706;23.372;2022-12-18T02:52:14;145429.13;;;5.06;100.00
6938;BME280;40040;42.706;23.372;2022-12-18T02:54:57;145425.44;;;5.05;100.00
6938;BME280;40040;42.706;23.372;2022-12-18T02:57:34;145432.78;;;5.08;100.00
6938;BME280;40040;42.706;23.372;2022-12-18T03:00:06;145381.19;;;4.87;100.00
6938;BME280;40040;42.706;23.372;2022-12-18T03:02:38;145418.06;;;5.02;100.00
6938;BME280;40040;42.706;23.372;2022-12-18T03:05:13;145386.13;;;4.89;100.00
6938;BME280;40040;42.706;23.372;2022-12-18T03:07:45;145403.31;;;4.96;100.00
6938;BME280;40040;42.706;23.372;2022-12-18T03:10:15;145349.28;;;4.74;100.00
6938;BME280;40040;42.706;23.372;2022-12-18T03:12:48;145409.47;;;4.98;100.00
6938;BME280;40040;42.706;23.372;2022-12-18T03:15:19;145405.81;;;4.97;100.00
6938;BME280;40040;42.706;23.372;2022-12-18T03:17:52;145368.94;;;4.82;100.00
6938;BME280;40040;42.706;23.372;2022-12-18T03:20:22;145349.28;;;4.74;100.00
6938;BME280;40040;42.706;23.372;2022-12-18T03:22:53;145314.91;;;4.59;100.00
6938;BME280;40040;42.706;23.372;2022-12-18T03:25:24;145345.63;;;4.72;100.00
6938;BME280;40040;42.706;23.372;2022-12-18T03:27:56;145351.72;;;4.75;100.00
6938;BME280;40040;42.706;23.372;2022-12-18T03:30:26;145337.03;;;4.69;100.00
6938;BME280;40040;42.706;23.372;2022-12-18T03:33:00;145172.50;;;4.01;100.00
6938;BME280;40040;42.706;23.372;2022-12-18T03:35:33;145377.53;;;4.85;100.00
6938;BME280;40040;42.706;23.372;2022-12-18T03:38:01;145377.53;;;4.85;100.00
6938;BME280;40040;42.706;23.372;2022-12-18T03:40:34;145370.16;;;4.82;100.00
6938;BME280;40040;42.706;23.372;2022-12-18T03:43:10;145328.44;;;4.65;100.00
6938;BME280;40040;42.706;23.372;2022-12-18T03:45:42;145356.66;;;4.77;100.00
6938;BME280;40040;42.706;23.372;2022-12-18T03:48:14;145367.72;;;4.81;100.00
6938;BME280;40040;42.706;23.372;2022-12-18T03:50:46;145310.00;;;4.57;100.00
6938;BME280;40040;42.706;23.372;2022-12-18T03:53:25;145373.84;;;4.84;100.00
6938;BME280;40040;42.706;23.372;2022-12-18T03:55:56;145351.72;;;4.75;100.00
6938;BME280;40040;42.706;23.372;2022-12-18T03:58:26;145318.59;;;4.61;100.00
6938;BME280;40040;42.706;23.372;2022-12-18T04:00:58;145301.41;;;4.54;100.00
6938;BME280;40040;42.706;23.372;2022-12-18T04:03:28;145344.38;;;4.72;100.00
6938;BME280;40040;42.706;23.372;2022-12-18T04:05:59;145307.56;;;4.56;100.00
6938;BME280;40040;42.706;23.372;2022-12-18T04:08:26;145324.75;;;4.64;100.00
6938;BME280;40040;42.706;23.372;2022-12-18T04:10:54;145300.16;;;4.53;100.00
6938;BME280;40040;42.706;23.372;2022-12-18T04:13:28;145310.00;;;4.57;100.00
6938;BME280;40040;42.706;23.372;2022-12-18T04:15:55;145177.44;;;4.03;100.00
6938;BME280;40040;42.706;23.372;2022-12-18T04:18:22;145321.03;;;4.62;100.00
6938;BME280;40040;42.706;23.372;2022-12-18T04:20:49;145238.81;;;4.28;100.00
6938;BME280;40040;42.706;23.372;2022-12-18T04:23:16;145273.19;;;4.42;100.00
6938;BME280;40040;42.706;23.372;2022-12-18T04:25:43;145292.81;;;4.50;100.00
6938;BME280;40040;42.706;23.372;2022-12-18T04:28:09;145273.19;;;4.42;100.00
6938;BME280;40040;42.706;23.372;2022-12-18T04:30:38;145258.44;;;4.36;100.00
6938;BME280;40040;42.706;23.372;2022-12-18T04:33:08;145206.88;;;4.15;100.00
6938;BME280;40040;42.706;23.372;2022-12-18T04:35:35;145260.91;;;4.37;100.00
6938;BME280;40040;42.706;23.372;2022-12-18T04:38:02;145160.25;;;3.96;100.00
6938;BME280;40040;42.706;23.372;2022-12-18T04:40:28;145271.94;;;4.42;100.00
6938;BME280;40040;42.706;23.372;2022-12-18T04:42:55;145276.88;;;4.44;100.00
6938;BME280;40040;42.706;23.372;2022-12-18T04:45:22;145224.06;;;4.22;100.00
6938;BME280;40040;42.706;23.372;2022-12-18T04:47:50;145268.28;;;4.40;100.00
6938;BME280;40040;42.706;23.372;2022-12-18T04:50:17;145217.94;;;4.20;100.00
6938;BME280;40040;42.706;23.372;2022-12-18T04:52:44;145274.38;;;4.43;100.00
6938;BME280;40040;42.706;23.372;2022-12-18T04:55:11;145211.78;;;4.17;100.00
6938;BME280;40040;42.706;23.372;2022-12-18T04:57:38;145230.22;;;4.25;100.00
6938;BME280;40040;42.706;23.372;2022-12-18T05:00:06;145258.44;;;4.36;100.00
6938;BME280;40040;42.706;23.372;2022-12-18T05:02:33;145268.28;;;4.40;100.00
6938;BME280;40040;42.706;23.372;2022-12-18T05:05:01;145273.19;;;4.42;100.00
6938;BME280;40040;42.706;23.372;2022-12-18T05:07:28;145181.09;;;4.05;100.00
6938;BME280;40040;42.706;23.372;2022-12-18T05:09:55;145224.06;;;4.22;100.00
6938;BME280;40040;42.706;23.372;2022-12-18T05:12:23;145269.50;;;4.41;100.00
6938;BME280;40040;42.706;23.372;2022-12-18T05:14:50;145268.28;;;4.40;100.00
6938;BME280;40040;42.706;23.372;2022-12-18T05:17:17;145254.75;;;4.35;100.00
6938;BME280;40040;42.706;23.372;2022-12-18T05:19:44;145252.31;;;4.34;100.00
6938;BME280;40040;42.706;23.372;2022-12-18T05:22:12;145231.41;;;4.25;100.00
6938;BME280;40040;42.706;23.372;2022-12-18T05:24:39;145251.09;;;4.33;100.00
6938;BME280;40040;42.706;23.372;2022-12-18T05:27:06;145258.44;;;4.36;100.00
6938;BME280;40040;42.706;23.372;2022-12-18T05:29:32;145257.19;;;4.36;100.00
6938;BME280;40040;42.706;23.372;2022-12-18T05:31:59;145265.78;;;4.39;100.00
6938;BME280;40040;42.706;23.372;2022-12-18T05:34:26;145231.41;;;4.25;100.00
6938;BME280;40040;42.706;23.372;2022-12-18T05:36:53;145268.28;;;4.40;100.00
6938;BME280;40040;42.706;23.372;2022-12-18T05:39:21;145260.91;;;4.37;100.00
6938;BME280;40040;42.706;23.372;2022-12-18T05:41:48;145252.31;;;4.34;100.00
6938;BME280;40040;42.706;23.372;2022-12-18T05:44:15;145244.94;;;4.31;100.00
6938;BME280;40040;42.706;23.372;2022-12-18T05:46:42;145216.72;;;4.19;100.00
6938;BME280;40040;42.706;23.372;2022-12-18T05:49:08;145244.94;;;4.31;100.00
6938;BME280;40040;42.706;23.372;2022-12-18T05:51:35;145233.91;;;4.26;100.00
6938;BME280;40040;42.706;23.372;2022-12-18T05:54:02;145221.63;;;4.21;100.00
6938;BME280;40040;42.706;23.372;2022-12-18T05:56:30;145203.22;;;4.14;100.00
6938;BME280;40040;42.706;23.372;2022-12-18T05:58:57;145219.16;;;4.20;100.00
6938;BME280;40040;42.706;23.372;2022-12-18T06:01:26;145219.16;;;4.20;100.00
6938;BME280;40040;42.706;23.372;2022-12-18T06:03:53;145214.28;;;4.18;100.00
6938;BME280;40040;42.706;23.372;2022-12-18T06:06:21;145221.63;;;4.21;100.00
6938;BME280;40040;42.706;23.372;2022-12-18T06:08:49;145221.63;;;4.21;100.00
6938;BME280;40040;42.706;23.372;2022-12-18T06:11:18;145211.78;;;4.17;100.00
6938;BME280;40040;42.706;23.372;2022-12-18T06:13:49;145203.22;;;4.14;100.00
6938;BME280;40040;42.706;23.372;2022-12-18T06:16:16;145165.16;;;3.98;100.00
6938;BME280;40040;42.706;23.372;2022-12-18T06:18:43;145107.53;;;3.75;100.00
6938;BME280;40040;42.706;23.372;2022-12-18T06:21:10;145194.63;;;4.10;100.00
6938;BME280;40040;42.706;23.372;2022-12-18T06:23:37;145197.09;;;4.11;100.00
6938;BME280;40040;42.706;23.372;2022-12-18T06:26:05;145221.63;;;4.21;100.00
6938;BME280;40040;42.706;23.372;2022-12-18T06:28:32;145222.88;;;4.22;100.00
6938;BME280;40040;42.706;23.372;2022-12-18T06:31:00;145206.88;;;4.15;100.00
6938;BME280;40040;42.706;23.372;2022-12-18T06:33:27;145219.16;;;4.20;100.00
6938;BME280;40040;42.706;23.372;2022-12-18T06:35:59;145167.59;;;3.99;100.00
6938;BME280;40040;42.706;23.372;2022-12-18T06:38:27;145205.69;;;4.15;100.00
6938;BME280;40040;42.706;23.372;2022-12-18T06:40:53;145201.97;;;4.13;100.00
6938;BME280;40040;42.706;23.372;2022-12-18T06:43:20;145210.56;;;4.17;100.00
6938;BME280;40040;42.706;23.372;2022-12-18T06:45:47;145204.44;;;4.14;100.00
6938;BME280;40040;42.706;23.372;2022-12-18T06:48:19;145214.28;;;4.18;100.00
6938;BME280;40040;42.706;23.372;2022-12-18T06:50:46;145181.09;;;4.05;100.00
6938;BME280;40040;42.706;23.372;2022-12-18T06:53:13;145096.44;;;3.70;100.00
6938;BME280;40040;42.706;23.372;2022-12-18T06:55:39;145216.72;;;4.19;100.00
6938;BME280;40040;42.706;23.372;2022-12-18T06:58:06;145231.41;;;4.25;100.00
6938;BME280;40040;42.706;23.372;2022-12-18T07:00:33;145242.50;;;4.30;100.00
6938;BME280;40040;42.706;23.372;2022-12-18T07:03:00;145240.00;;;4.29;100.00
6938;BME280;40040;42.706;23.372;2022-12-18T07:05:28;145228.97;;;4.24;100.00
6938;BME280;40040;42.706;23.372;2022-12-18T07:07:55;145233.91;;;4.26;100.00
6938;BME280;40040;42.706;23.372;2022-12-18T07:10:21;145224.06;;;4.22;100.00
6938;BME280;40040;42.706;23.372;2022-12-18T07:12:49;145225.31;;;4.23;100.00
6938;BME280;40040;42.706;23.372;2022-12-18T07:15:16;145219.16;;;4.20;100.00
6938;BME280;40040;42.706;23.372;2022-12-18T07:17:42;145106.28;;;3.74;100.00
6938;BME280;40040;42.706;23.372;2022-12-18T07:20:10;145214.28;;;4.18;100.00
6938;BME280;40040;42.706;23.372;2022-12-18T07:22:38;145232.66;;;4.26;100.00
6938;BME280;40040;42.706;23.372;2022-12-18T07:25:07;145228.97;;;4.24;100.00
6938;BME280;40040;42.706;23.372;2022-12-18T07:27:34;145233.91;;;4.26;100.00
6938;BME280;40040;42.706;23.372;2022-12-18T07:30:00;145231.41;;;4.25;100.00
6938;BME280;40040;42.706;23.372;2022-12-18T07:32:27;145206.88;;;4.15;100.00
6938;BME280;40040;42.706;23.372;2022-12-18T07:34:54;145232.66;;;4.26;100.00
6938;BME280;40040;42.706;23.372;2022-12-18T07:37:21;145216.72;;;4.19;100.00
6938;BME280;40040;42.706;23.372;2022-12-18T07:39:49;145113.63;;;3.77;100.00
6938;BME280;40040;42.706;23.372;2022-12-18T07:42:16;145124.69;;;3.82;100.00
6938;BME280;40040;42.706;23.372;2022-12-18T07:44:58;145235.13;;;4.27;100.00
6938;BME280;40040;42.706;23.372;2022-12-18T07:47:26;145224.06;;;4.22;100.00
6938;BME280;40040;42.706;23.372;2022-12-18T07:49:53;145248.59;;;4.32;100.00
6938;BME280;40040;42.706;23.372;2022-12-18T07:52:20;145141.88;;;3.89;100.00
6938;BME280;40040;42.706;23.372;2022-12-18T07:54:46;145254.75;;;4.35;100.00
6938;BME280;40040;42.706;23.372;2022-12-18T07:57:16;145226.53;;;4.23;100.00
6938;BME280;40040;42.706;23.372;2022-12-18T07:59:43;145224.06;;;4.22;100.00
6938;BME280;40040;42.706;23.372;2022-12-18T08:02:10;145219.16;;;4.20;100.00
6938;BME280;40040;42.706;23.372;2022-12-18T08:04:37;145252.31;;;4.34;100.00
6938;BME280;40040;42.706;23.372;2022-12-18T08:07:06;145198.28;;;4.12;100.00
6938;BME280;40040;42.706;23.372;2022-12-18T08:09:33;145269.50;;;4.41;100.00
6938;BME280;40040;42.706;23.372;2022-12-18T08:12:00;145243.72;;;4.30;100.00
6938;BME280;40040;42.706;23.372;2022-12-18T08:14:28;145258.44;;;4.36;100.00
6938;BME280;40040;42.706;23.372;2022-12-18T08:16:55;145210.56;;;4.17;100.00
6938;BME280;40040;42.706;23.372;2022-12-18T08:19:22;145251.09;;;4.33;100.00
6938;BME280;40040;42.706;23.372;2022-12-18T08:21:48;145256.00;;;4.35;100.00
6938;BME280;40040;42.706;23.372;2022-12-18T08:24:15;145201.97;;;4.13;100.00
6938;BME280;40040;42.706;23.372;2022-12-18T08:26:42;145260.91;;;4.37;100.00
6938;BME280;40040;42.706;23.372;2022-12-18T08:29:09;145214.28;;;4.18;100.00
6938;BME280;40040;42.706;23.372;2022-12-18T08:31:38;145256.00;;;4.35;100.00
6938;BME280;40040;42.706;23.372;2022-12-18T08:34:05;145204.44;;;4.14;100.00
6938;BME280;40040;42.706;23.372;2022-12-18T08:36:31;145243.72;;;4.30;100.00
6938;BME280;40040;42.706;23.372;2022-12-18T08:38:58;145204.44;;;4.14;100.00
6938;BME280;40040;42.706;23.372;2022-12-18T08:41:25;145243.72;;;4.30;100.00
6938;BME280;40040;42.706;23.372;2022-12-18T08:43:52;145217.94;;;4.20;100.00
6938;BME280;40040;42.706;23.372;2022-12-18T08:46:39;145264.59;;;4.39;100.00
6938;BME280;40040;42.706;23.372;2022-12-18T08:49:07;145274.38;;;4.43;100.00
6938;BME280;40040;42.706;23.372;2022-12-18T08:51:34;145216.72;;;4.19;100.00
6938;BME280;40040;42.706;23.372;2022-12-18T08:54:02;145195.84;;;4.11;100.00
6938;BME280;40040;42.706;23.372;2022-12-18T08:56:29;145243.72;;;4.30;100.00
6938;BME280;40040;42.706;23.372;2022-12-18T08:58:57;145246.16;;;4.31;100.00
6938;BME280;40040;42.706;23.372;2022-12-18T09:01:24;145280.53;;;4.45;100.00
6938;BME280;40040;42.706;23.372;2022-12-18T09:03:52;145195.84;;;4.11;100.00
6938;BME280;40040;42.706;23.372;2022-12-18T09:06:21;145282.97;;;4.46;100.00
6938;BME280;40040;42.706;23.372;2022-12-18T09:08:48;145295.28;;;4.51;100.00
6938;BME280;40040;42.706;23.372;2022-12-18T09:11:20;145292.81;;;4.50;100.00
6938;BME280;40040;42.706;23.372;2022-12-18T09:13:47;145259.69;;;4.37;100.00
6938;BME280;40040;42.706;23.372;2022-12-18T09:16:14;145324.75;;;4.64;100.00
6938;BME280;40040;42.706;23.372;2022-12-18T09:18:41;145325.94;;;4.64;100.00
6938;BME280;40040;42.706;23.372;2022-12-18T09:21:11;145281.78;;;4.46;100.00
6938;BME280;40040;42.706;23.372;2022-12-18T09:23:39;145303.84;;;4.55;100.00
6938;BME280;40040;42.706;23.372;2022-12-18T09:26:06;145214.28;;;4.18;100.00
6938;BME280;40040;42.706;23.372;2022-12-18T09:28:33;145226.53;;;4.23;100.00
6938;BME280;40040;42.706;23.372;2022-12-18T09:31:04;145317.34;;;4.60;100.00
6938;BME280;40040;42.706;23.372;2022-12-18T09:33:31;145258.44;;;4.36;100.00
6938;BME280;40040;42.706;23.372;2022-12-18T09:35:57;145280.53;;;4.45;100.00
6938;BME280;40040;42.706;23.372;2022-12-18T09:38:28;145354.22;;;4.76;100.00
6938;BME280;40040;42.706;23.372;2022-12-18T09:40:59;145354.22;;;4.76;100.00
6938;BME280;40040;42.706;23.372;2022-12-18T09:43:30;145368.94;;;4.82;100.00
6938;BME280;40040;42.706;23.372;2022-12-18T09:46:05;145259.69;;;4.37;100.00
6938;BME280;40040;42.706;23.372;2022-12-18T09:48:35;145364.00;;;4.80;100.00
6938;BME280;40040;42.706;23.372;2022-12-18T09:51:11;145214.28;;;4.18;100.00
6938;BME280;40040;42.706;23.372;2022-12-18T09:53:44;145397.19;;;4.93;100.00
6938;BME280;40040;42.706;23.372;2022-12-18T09:56:16;145400.88;;;4.95;100.00
6938;BME280;40040;42.706;23.372;2022-12-18T09:58:47;145275.63;;;4.43;100.00
6938;BME280;40040;42.706;23.372;2022-12-18T10:01:21;145371.41;;;4.83;100.00
6938;BME280;40040;42.706;23.372;2022-12-18T10:03:49;145382.44;;;4.87;100.00
6938;BME280;40040;42.706;23.372;2022-12-18T10:06:22;145421.75;;;5.03;100.00
6938;BME280;40040;42.706;23.372;2022-12-18T10:08:54;145440.19;;;5.11;100.00
6938;BME280;40040;42.706;23.372;2022-12-18T10:11:34;145473.34;;;5.24;100.00
6938;BME280;40040;42.706;23.372;2022-12-18T10:14:10;145418.06;;;5.02;100.00
6938;BME280;40040;42.706;23.372;2022-12-18T10:16:50;145436.47;;;5.09;100.00
6938;BME280;40040;42.706;23.372;2022-12-18T10:19:34;145489.31;;;5.31;100.00
6938;BME280;40040;42.706;23.372;2022-12-18T10:22:11;145504.06;;;5.37;100.00
6938;BME280;40040;42.706;23.372;2022-12-18T10:24:48;145508.94;;;5.39;100.00
6938;BME280;40040;42.706;23.372;2022-12-18T10:27:20;145472.09;;;5.24;100.00
6938;BME280;40040;42.706;23.372;2022-12-18T10:29:48;145332.09;;;4.67;100.00
6938;BME280;40040;42.706;23.372;2022-12-18T10:32:17;145452.47;;;5.16;100.00
6938;BME280;40040;42.706;23.372;2022-12-18T10:34:45;145523.72;;;5.45;100.00
6938;BME280;40040;42.706;23.372;2022-12-18T10:37:16;145496.66;;;5.34;100.00
6938;BME280;40040;42.706;23.372;2022-12-18T10:39:45;145543.34;;;5.53;100.00
6938;BME280;40040;42.706;23.372;2022-12-18T10:42:17;145518.78;;;5.43;100.00
6938;BME280;40040;42.706;23.372;2022-12-18T10:44:44;145545.84;;;5.54;100.00
6938;BME280;40040;42.706;23.372;2022-12-18T10:47:14;145520.03;;;5.43;100.00
6938;BME280;40040;42.706;23.372;2022-12-18T10:49:49;145484.38;;;5.29;100.00
6938;BME280;40040;42.706;23.372;2022-12-18T10:52:18;145572.84;;;5.65;100.00
6938;BME280;40040;42.706;23.372;2022-12-18T10:54:51;145547.03;;;5.54;100.00
6938;BME280;40040;42.706;23.372;2022-12-18T10:57:34;145560.56;;;5.60;100.00
6938;BME280;40040;42.706;23.372;2022-12-18T11:00:22;145569.16;;;5.63;100.00
6938;BME280;40040;42.706;23.372;2022-12-18T11:02:50;145570.41;;;5.64;100.00
6938;BME280;40040;42.706;23.372;2022-12-18T11:05:26;145542.16;;;5.52;100.00
6938;BME280;40040;42.706;23.372;2022-12-18T11:07:53;145489.31;;;5.31;100.00
6938;BME280;40040;42.706;23.372;2022-12-18T11:10:25;145550.75;;;5.56;100.00
6938;BME280;40040;42.706;23.372;2022-12-18T11:12:52;145581.44;;;5.68;100.00
6938;BME280;40040;42.706;23.372;2022-12-18T11:15:20;145570.41;;;5.64;100.00
6938;BME280;40040;42.706;23.372;2022-12-18T11:17:49;145463.50;;;5.20;100.00
6938;BME280;40040;42.706;23.372;2022-12-18T11:20:26;145558.13;;;5.59;100.00
6938;BME280;40040;42.706;23.372;2022-12-18T11:22:56;145489.31;;;5.31;100.00
6938;BME280;40040;42.706;23.372;2022-12-18T11:25:26;145548.28;;;5.55;100.00
6938;BME280;40040;42.706;23.372;2022-12-18T11:27:55;145488.06;;;5.30;100.00
6938;BME280;40040;42.706;23.372;2022-12-18T11:30:24;145558.13;;;5.59;100.00
6938;BME280;40040;42.706;23.372;2022-12-18T11:32:54;145577.75;;;5.67;100.00
6938;BME280;40040;42.706;23.372;2022-12-18T11:35:30;145548.28;;;5.55;100.00
6938;BME280;40040;42.706;23.372;2022-12-18T11:38:04;145517.53;;;5.42;100.00
6938;BME280;40040;42.706;23.372;2022-12-18T11:40:35;145570.41;;;5.64;100.00
6938;BME280;40040;42.706;23.372;2022-12-18T11:43:08;145607.25;;;5.79;100.00
6938;BME280;40040;42.706;23.372;2022-12-18T11:45:41;145604.81;;;5.78;100.00
6938;BME280;40040;42.706;23.372;2022-12-18T11:48:17;145607.25;;;5.79;100.00
6938;BME280;40040;42.706;23.372;2022-12-18T11:50:49;145597.44;;;5.75;100.00
6938;BME280;40040;42.706;23.372;2022-12-18T11:53:17;145553.19;;;5.57;100.00
6938;BME280;40040;42.706;23.372;2022-12-18T11:55:54;145570.41;;;5.64;100.00
6938;BME280;40040;42.706;23.372;2022-12-18T11:58:45;145545.84;;;5.54;100.00
6938;BME280;40040;42.706;23.372;2022-12-18T12:01:22;145452.47;;;5.16;100.00
6938;BME280;40040;42.706;23.372;2022-12-18T12:04:14;145513.88;;;5.41;100.00
6938;BME280;40040;42.706;23.372;2022-12-18T12:06:50;145529.81;;;5.47;100.00
6938;BME280;40040;42.706;23.372;2022-12-18T12:09:25;145481.94;;;5.28;100.00
6938;BME280;40040;42.706;23.372;2022-12-18T12:12:06;145492.97;;;5.32;100.00
6938;BME280;40040;42.706;23.372;2022-12-18T12:14:46;145516.34;;;5.42;100.00
6938;BME280;40040;42.706;23.372;2022-12-18T12:17:21;145521.28;;;5.44;100.00
6938;BME280;40040;42.706;23.372;2022-12-18T12:20:00;145489.31;;;5.31;100.00
6938;BME280;40040;42.706;23.372;2022-12-18T12:22:35;145437.72;;;5.10;100.00
6938;BME280;40040;42.706;23.372;2022-12-18T12:25:19;145537.22;;;5.50;100.00
6938;BME280;40040;42.706;23.372;2022-12-18T12:27:57;145526.16;;;5.46;100.00
6938;BME280;40040;42.706;23.372;2022-12-18T12:30:36;145572.84;;;5.65;100.00
6938;BME280;40040;42.706;23.372;2022-12-18T12:33:14;145577.75;;;5.67;100.00
6938;BME280;40040;42.706;23.372;2022-12-18T12:35:52;145575.31;;;5.66;100.00
6938;BME280;40040;42.706;23.372;2022-12-18T12:38:26;145579.00;;;5.67;100.00
6938;BME280;40040;42.706;23.372;2022-12-18T12:40:58;145513.88;;;5.41;100.00
6938;BME280;40040;42.706;23.372;2022-12-18T12:43:33;145558.13;;;5.59;100.00
6938;BME280;40040;42.706;23.372;2022-12-18T12:46:03;145575.31;;;5.66;100.00
6938;BME280;40040;42.706;23.372;2022-12-18T12:48:36;145580.25;;;5.68;100.00
6938;BME280;40040;42.706;23.372;2022-12-18T12:51:10;145534.75;;;5.49;100.00
6938;BME280;40040;42.706;23.372;2022-12-18T12:53:39;145601.13;;;5.77;100.00
6938;BME280;40040;42.706;23.372;2022-12-18T12:56:08;145565.47;;;5.62;100.00
6938;BME280;40040;42.706;23.372;2022-12-18T12:58:45;145592.53;;;5.73;100.00
6938;BME280;40040;42.706;23.372;2022-12-18T13:01:18;145560.56;;;5.60;100.00
6938;BME280;40040;42.706;23.372;2022-12-18T13:03:55;145590.03;;;5.72;100.00
6938;BME280;40040;42.706;23.372;2022-12-18T13:06:32;145565.47;;;5.62;100.00